Portlish — CRA6223 — position and weather

sailwx.info

Track history (hours):
 
Tides and Currents Weather Stations Pressure Air Temp Water Temp Dewpoint Dewpoint Depression Visibility Wind Speed Wind Dir Waves Ship Positions

Portlish

Last reported at 2018-Jul-22 22:00 UTC. Time now 2018-Jul-22 22:06 UTC.
Position N 37°57' W 008°52'.

Length 14 m.

Type: Sailing vessel. MMSI: 263945980.

Date/timePositionNaut miles runAvg speedWind from/ knotsBaromVisibWave heightAir tempDewpointWater temp
2018-Jul-22 22:00N 37°57' W 008°52'0 0.0
2018-Jul-22 21:30N 37°57' W 008°52'0 0.0
2018-Jul-22 21:00N 37°57' W 008°52'0 0.0
2018-Jul-22 20:30N 37°57' W 008°52'0 0.0
2018-Jul-22 20:00N 37°57' W 008°52'0 0.0
2018-Jul-22 19:30N 37°57' W 008°52'0 0.0
2018-Jul-22 19:00N 37°57' W 008°52'0 0.0
2018-Jul-22 18:30N 37°57' W 008°52'0 0.0
2018-Jul-22 18:00N 37°57' W 008°52'0 0.0
2018-Jul-22 17:29N 37°57' W 008°52'0 0.0
2018-Jul-22 16:59N 37°57' W 008°52'0 0.0
2018-Jul-22 16:29N 37°57' W 008°52'0 0.0
2018-Jul-22 15:59N 37°57' W 008°52'3 3.3
2018-Jul-22 15:00N 37°58' W 008°56'4 8.1
2018-Jul-22 14:30N 38°02' W 008°58'4 8.2
2018-Jul-22 14:00N 38°06' W 009°01'4 8.1
2018-Jul-22 13:30N 38°09' W 009°03'3 6.9
2018-Jul-22 13:00N 38°12' W 009°05'4 8.5
2018-Jul-22 12:31N 38°16' W 009°08'9 8.6
2018-Jul-22 11:26N 38°24' W 009°13'4 8.3
2018-Jul-22 10:58N 38°27' W 009°15'4 8.3
2018-Jul-22 10:30N 38°31' W 009°18'4 8.1
2018-Jul-22 10:00N 38°34' W 009°20'4 7.9
2018-Jul-22 09:29N 38°38' W 009°23'4 7.9
2018-Jul-22 09:00N 38°42' W 009°24'0 0.9
2018-Jul-22 08:30N 38°42' W 009°25'0 0.0
2018-Jul-22 08:00N 38°42' W 009°25'0 0.0
2018-Jul-22 07:30N 38°42' W 009°25'0 0.0
2018-Jul-22 06:54N 38°42' W 009°25'0 0.0
2018-Jul-22 06:30N 38°42' W 009°25'0 0.0
2018-Jul-22 05:54N 38°42' W 009°25'0 0.0
2018-Jul-22 05:24N 38°42' W 009°25'0 0.0
2018-Jul-22 04:06N 38°42' W 009°25'0 0.0
2018-Jul-22 04:00N 38°42' W 009°25'0 0.0
2018-Jul-22 03:24N 38°42' W 009°25'0 0.0
2018-Jul-22 03:00N 38°42' W 009°25'0 0.0
2018-Jul-22 01:21N 38°42' W 009°25'0 0.0
2018-Jul-22 01:00N 38°42' W 009°25'0 0.0
2018-Jul-22 00:27N 38°42' W 009°25'0 0.0
2018-Jul-21 23:51N 38°42' W 009°25'0 0.0
2018-Jul-21 22:42N 38°42' W 009°25'0 0.0
2018-Jul-21 22:30N 38°42' W 009°25'0 0.0
2018-Jul-21 21:24N 38°42' W 009°25'0 0.0
2018-Jul-21 20:48N 38°42' W 009°25'0 0.0
2018-Jul-21 20:24N 38°42' W 009°25'0 0.0
2018-Jul-21 20:00N 38°42' W 009°25'0 0.0
2018-Jul-21 19:30N 38°42' W 009°25'0 0.0
2018-Jul-21 18:54N 38°42' W 009°25'0 0.0
2018-Jul-21 17:12N 38°42' W 009°25'0 0.0
2018-Jul-21 17:00N 38°42' W 009°25'0 0.0
2018-Jul-21 16:30N 38°42' W 009°25'0 0.0
2018-Jul-21 15:42N 38°42' W 009°25'0 0.0
2018-Jul-21 15:30N 38°42' W 009°25'0 0.0
2018-Jul-21 15:00N 38°42' W 009°25'0 0.0
2018-Jul-21 14:30N 38°42' W 009°25'0 0.0
2018-Jul-21 13:30N 38°42' W 009°25'0 0.0
2018-Jul-21 12:48N 38°42' W 009°25'0 0.0
2018-Jul-21 11:18N 38°42' W 009°25'0 0.0
2018-Jul-21 10:54N 38°42' W 009°25'0 0.0
2018-Jul-21 09:57N 38°42' W 009°25'0 0.0
2018-Jul-21 09:18N 38°42' W 009°25'0 0.0
2018-Jul-21 09:00N 38°42' W 009°25'0 0.0
2018-Jul-21 08:30N 38°42' W 009°25'0 0.0
2018-Jul-21 07:18N 38°42' W 009°25'0 0.0
2018-Jul-21 06:54N 38°42' W 009°25'0 0.0
2018-Jul-21 06:12N 38°42' W 009°25'0 0.0
2018-Jul-21 05:54N 38°42' W 009°25'0 0.0
2018-Jul-21 05:30N 38°42' W 009°25'0 0.0
2018-Jul-21 05:00N 38°42' W 009°25'0 0.0
2018-Jul-21 04:30N 38°42' W 009°25'0 0.0
2018-Jul-21 02:48N 38°42' W 009°25'0 0.0
2018-Jul-21 02:24N 38°42' W 009°25'0 0.0
2018-Jul-21 01:54N 38°42' W 009°25'0 0.0
2018-Jul-21 01:30N 38°42' W 009°25'0 0.0
2018-Jul-21 00:51N 38°42' W 009°25'0 0.0
2018-Jul-21 00:30N 38°42' W 009°25'0 0.0
2018-Jul-20 23:48N 38°42' W 009°25'0 0.0
2018-Jul-20 23:24N 38°42' W 009°25'0 0.0
2018-Jul-20 22:48N 38°42' W 009°25'0 0.0
2018-Jul-20 21:06N 38°42' W 009°25'0 0.0
2018-Jul-20 20:36N 38°42' W 009°25'0 0.0
2018-Jul-20 20:24N 38°42' W 009°25'0 0.0
2018-Jul-20 19:54N 38°42' W 009°25'0 0.0
2018-Jul-20 19:06N 38°42' W 009°25'0 0.0
2018-Jul-20 19:00N 38°42' W 009°25'0 0.0
2018-Jul-20 18:18N 38°42' W 009°25'0 0.0
2018-Jul-20 16:06N 38°42' W 009°25'0 0.0
2018-Jul-20 15:36N 38°42' W 009°25'0 0.0
2018-Jul-20 15:30N 38°42' W 009°25'0 0.0
2018-Jul-20 14:54N 38°42' W 009°25'0 0.0
2018-Jul-20 13:12N 38°42' W 009°25'0 0.0
2018-Jul-20 10:48N 38°42' W 009°25'0 0.0
2018-Jul-20 10:12N 38°42' W 009°25'0 0.0
2018-Jul-20 10:00N 38°42' W 009°25'0 0.0
2018-Jul-20 09:12N 38°42' W 009°25'0 0.0
2018-Jul-20 08:48N 38°42' W 009°25'0 0.0
2018-Jul-20 08:24N 38°42' W 009°25'0 0.0
2018-Jul-20 08:00N 38°42' W 009°25'0 0.0
2018-Jul-20 07:30N 38°42' W 009°25'0 0.0
2018-Jul-20 07:00N 38°42' W 009°25'0 0.0
2018-Jul-20 06:30N 38°42' W 009°25'0 0.0
2018-Jul-20 06:00N 38°42' W 009°25'0 0.0
2018-Jul-20 05:27N 38°42' W 009°25'0 0.0
2018-Jul-20 04:12N 38°42' W 009°25'0 0.0
2018-Jul-20 03:30N 38°42' W 009°25'0 0.0
2018-Jul-20 03:00N 38°42' W 009°25'0 0.0
2018-Jul-20 01:39N 38°42' W 009°25'0 0.0
2018-Jul-20 01:30N 38°42' W 009°25'0 0.0
2018-Jul-20 01:00N 38°42' W 009°25'0 0.0
2018-Jul-20 00:18N 38°42' W 009°25'0 0.0
2018-Jul-20 00:00N 38°42' W 009°25'0 0.0
2018-Jul-19 23:30N 38°42' W 009°25'0 0.0
2018-Jul-19 23:00N 38°42' W 009°25'0 0.0
2018-Jul-19 22:18N 38°42' W 009°25'0 0.0
2018-Jul-19 21:54N 38°42' W 009°25'0 0.0
2018-Jul-19 18:48N 38°42' W 009°25'0 0.0
2018-Jul-19 18:24N 38°42' W 009°25'0 0.0
2018-Jul-19 18:00N 38°42' W 009°25'0 0.0
2018-Jul-19 16:54N 38°42' W 009°25'0 0.0
2018-Jul-19 16:24N 38°42' W 009°25'0 0.0
2018-Jul-19 16:00N 38°42' W 009°25'0 0.0
2018-Jul-19 15:24N 38°42' W 009°25'0 0.0
2018-Jul-19 15:00N 38°42' W 009°25'0 0.0
2018-Jul-19 14:30N 38°42' W 009°25'0 0.0
2018-Jul-19 13:30N 38°42' W 009°25'0 0.0
2018-Jul-19 12:54N 38°42' W 009°25'0 0.0
2018-Jul-19 12:30N 38°42' W 009°25'0 0.0
2018-Jul-19 11:36N 38°42' W 009°25'0 0.0
2018-Jul-19 11:12N 38°42' W 009°25'0 0.0
2018-Jul-19 11:00N 38°42' W 009°25'0 0.0
2018-Jul-19 10:24N 38°42' W 009°25'0 0.0
2018-Jul-19 09:18N 38°42' W 009°25'0 0.0
2018-Jul-19 08:48N 38°42' W 009°25'0 0.0
2018-Jul-19 07:57N 38°42' W 009°25'0 0.0
2018-Jul-19 07:30N 38°42' W 009°25'0 0.0
2018-Jul-19 06:48N 38°42' W 009°25'0 0.0
2018-Jul-19 06:24N 38°42' W 009°25'0 0.0
2018-Jul-19 05:42N 38°42' W 009°25'0 0.0
2018-Jul-19 05:24N 38°42' W 009°25'0 0.0
2018-Jul-19 05:00N 38°42' W 009°25'0 0.0
2018-Jul-19 04:24N 38°42' W 009°25'0 0.0
2018-Jul-19 03:27N 38°42' W 009°25'0 0.0
2018-Jul-19 03:00N 38°42' W 009°25'0 0.0
2018-Jul-19 02:12N 38°42' W 009°25'0 0.0
2018-Jul-19 01:54N 38°42' W 009°25'0 0.0
2018-Jul-19 01:22N 38°42' W 009°25'0 0.0
2018-Jul-19 00:53N 38°42' W 009°25'0 0.0
2018-Jul-18 23:59N 38°42' W 009°25'0 0.0
2018-Jul-18 23:23N 38°42' W 009°25'0 0.0
2018-Jul-18 22:59N 38°42' W 009°25'0 0.0
2018-Jul-18 21:44N 38°42' W 009°25'0 0.0
2018-Jul-18 21:23N 38°42' W 009°25'0 0.0
2018-Jul-18 20:47N 38°42' W 009°25'0 0.0
2018-Jul-18 20:17N 38°42' W 009°25'0 0.0
2018-Jul-18 19:59N 38°42' W 009°25'0 0.0
2018-Jul-18 19:23N 38°42' W 009°25'0 0.0
2018-Jul-18 18:53N 38°42' W 009°25'0 0.0
2018-Jul-18 18:23N 38°42' W 009°25'0 0.0
2018-Jul-18 17:35N 38°42' W 009°25'0 0.0
2018-Jul-18 17:11N 38°42' W 009°25'0 0.0
2018-Jul-18 16:47N 38°42' W 009°25'0 0.0
2018-Jul-18 16:11N 38°42' W 009°25'0 0.0
2018-Jul-18 15:05N 38°42' W 009°25'0 0.0
2018-Jul-18 14:59N 38°42' W 009°25'0 0.0
2018-Jul-18 14:17N 38°42' W 009°25'0 0.0
2018-Jul-18 11:29N 38°42' W 009°25'0 0.0
2018-Jul-18 10:17N 38°42' W 009°25'0 0.0
2018-Jul-18 09:47N 38°42' W 009°25'0 0.0
2018-Jul-18 08:05N 38°42' W 009°25'0 0.0
2018-Jul-18 07:38N 38°42' W 009°25'0 0.0
2018-Jul-18 07:17N 38°42' W 009°25'0 0.0
2018-Jul-18 06:38N 38°42' W 009°25'0 0.0
2018-Jul-18 06:29N 38°42' W 009°25'0 0.0
2018-Jul-18 05:53N 38°42' W 009°25'0 0.0
2018-Jul-18 05:26N 38°42' W 009°25'0 0.0
2018-Jul-18 04:56N 38°42' W 009°25'0 0.0
2018-Jul-18 04:23N 38°42' W 009°25'0 0.0
2018-Jul-18 03:53N 38°42' W 009°25'0 0.0
2018-Jul-18 03:29N 38°42' W 009°25'0 0.0
2018-Jul-18 02:59N 38°42' W 009°25'0 0.0
2018-Jul-18 01:35N 38°42' W 009°25'0 0.0
2018-Jul-18 01:22N 38°42' W 009°25'0 0.0
2018-Jul-17 23:13N 38°42' W 009°25'0 0.0
2018-Jul-17 22:49N 38°42' W 009°25'0 0.0
2018-Jul-17 22:07N 38°42' W 009°25'0 0.0
2018-Jul-17 21:37N 38°42' W 009°25'0 0.0
2018-Jul-17 21:25N 38°42' W 009°25'0 0.0
2018-Jul-17 20:55N 38°42' W 009°25'0 0.0
2018-Jul-17 20:07N 38°42' W 009°25'0 0.0
2018-Jul-17 19:37N 38°42' W 009°25'0 0.0
2018-Jul-17 19:07N 38°42' W 009°25'0 0.0
2018-Jul-17 18:55N 38°42' W 009°25'0 0.0
2018-Jul-17 17:55N 38°42' W 009°25'0 0.0
2018-Jul-17 17:07N 38°42' W 009°25'0 0.0
2018-Jul-17 16:55N 38°42' W 009°25'0 0.0
2018-Jul-17 16:25N 38°42' W 009°25'0 0.0
2018-Jul-17 15:37N 38°42' W 009°25'0 0.0
2018-Jul-17 15:19N 38°42' W 009°25'0 0.0
2018-Jul-17 14:58N 38°42' W 009°25'0 0.0
2018-Jul-17 14:19N 38°42' W 009°25'0 0.0
2018-Jul-17 13:49N 38°42' W 009°25'0 0.0
2018-Jul-17 13:01N 38°42' W 009°25'0 0.0
2018-Jul-17 12:55N 38°42' W 009°25'0 0.0
2018-Jul-17 12:07N 38°42' W 009°25'0 0.0
2018-Jul-17 11:55N 38°42' W 009°25'0 0.0
2018-Jul-17 11:25N 38°42' W 009°25'0 0.0
2018-Jul-17 10:55N 38°42' W 009°25'0 0.0
2018-Jul-17 09:37N 38°42' W 009°25'0 0.0
2018-Jul-17 09:19N 38°42' W 009°25'0 0.0
2018-Jul-17 08:46N 38°42' W 009°25'0 0.0
2018-Jul-17 08:19N 38°42' W 009°25'0 0.0
2018-Jul-17 07:55N 38°42' W 009°25'0 0.0
2018-Jul-17 07:19N 38°42' W 009°25'0 0.0
2018-Jul-17 06:43N 38°42' W 009°25'0 0.0
2018-Jul-17 05:37N 38°42' W 009°25'0 0.0
2018-Jul-17 05:13N 38°42' W 009°25'0 0.0
2018-Jul-17 04:49N 38°42' W 009°25'0 0.0
2018-Jul-17 04:25N 38°42' W 009°25'0 0.0
2018-Jul-17 03:52N 38°42' W 009°25'0 0.0
2018-Jul-17 03:25N 38°42' W 009°25'0 0.0
2018-Jul-17 01:07N 38°42' W 009°25'0 0.0
2018-Jul-17 00:58N 38°42' W 009°25'0 0.0
2018-Jul-17 00:24N 38°42' W 009°25'0 0.0
2018-Jul-16 23:30N 38°42' W 009°25'0 0.0
2018-Jul-16 22:48N 38°42' W 009°25'0 0.0
2018-Jul-16 22:24N 38°42' W 009°25'0 0.0
2018-Jul-16 21:54N 38°42' W 009°25'0 0.0
2018-Jul-16 21:27N 38°42' W 009°25'0 0.0
2018-Jul-16 20:54N 38°42' W 009°25'0 0.0
2018-Jul-16 19:54N 38°42' W 009°25'0 0.0
2018-Jul-16 18:54N 38°42' W 009°25'0 0.0
2018-Jul-16 18:12N 38°42' W 009°25'0 0.0
2018-Jul-16 17:48N 38°42' W 009°25'0 0.0
2018-Jul-16 17:30N 38°42' W 009°25'0 0.0
2018-Jul-16 17:00N 38°42' W 009°25'0 0.0
2018-Jul-16 16:24N 38°42' W 009°25'0 0.0
2018-Jul-16 16:00N 38°42' W 009°25'0 0.0
2018-Jul-16 15:30N 38°42' W 009°25'0 0.0
2018-Jul-16 15:00N 38°42' W 009°25'0 0.0
2018-Jul-16 14:30N 38°42' W 009°25'0 0.0
2018-Jul-16 13:30N 38°42' W 009°25'0 0.0
2018-Jul-16 13:00N 38°42' W 009°25'0 0.0
2018-Jul-16 12:18N 38°42' W 009°25'0 0.0
2018-Jul-16 11:54N 38°42' W 009°25'0 0.0
2018-Jul-16 11:18N 38°42' W 009°25'0 0.0
2018-Jul-16 10:54N 38°42' W 009°25'0 0.0
2018-Jul-16 10:12N 38°42' W 009°25'0 0.0
2018-Jul-16 09:48N 38°42' W 009°25'0 0.0
2018-Jul-16 09:30N 38°42' W 009°25'0 0.0
2018-Jul-16 08:54N 38°42' W 009°25'0 0.0
2018-Jul-16 08:24N 38°42' W 009°25'0 0.0
2018-Jul-16 07:30N 38°42' W 009°25'0 0.0
2018-Jul-16 07:00N 38°42' W 009°25'0 0.0
2018-Jul-16 06:30N 38°42' W 009°25'0 0.0
2018-Jul-16 05:48N 38°42' W 009°25'0 0.0
2018-Jul-16 05:24N 38°42' W 009°25'0 0.0
2018-Jul-16 04:59N 38°42' W 009°25'0 0.0
2018-Jul-16 04:16N 38°42' W 009°25'0 0.0
2018-Jul-16 03:22N 38°42' W 009°25'0 0.0
2018-Jul-16 02:52N 38°42' W 009°25'0 0.0
2018-Jul-16 02:22N 38°42' W 009°25'0 0.0
2018-Jul-16 01:55N 38°42' W 009°25'0 0.0
2018-Jul-16 00:46N 38°42' W 009°25'0 0.0
2018-Jul-15 23:58N 38°42' W 009°25'0 0.0
2018-Jul-15 23:28N 38°42' W 009°25'0 0.0
2018-Jul-15 22:16N 38°42' W 009°25'0 0.0
2018-Jul-15 21:55N 38°42' W 009°25'0 0.0
2018-Jul-15 21:28N 38°42' W 009°25'0 0.0
2018-Jul-15 20:39N 38°42' W 009°25'0 0.0
2018-Jul-15 20:21N 38°42' W 009°25'0 0.0
2018-Jul-15 19:57N 38°42' W 009°25'0 0.0
2018-Jul-15 19:27N 38°42' W 009°25'0 0.0
2018-Jul-15 18:45N 38°42' W 009°25'0 0.0
2018-Jul-15 18:21N 38°42' W 009°25'0 0.0
2018-Jul-15 17:51N 38°42' W 009°25'0 0.0
2018-Jul-15 17:09N 38°42' W 009°25'0 2.1
2018-Jul-15 16:59N 38°42' W 009°25'0 0.4
2018-Jul-15 16:04N 38°42' W 009°25'0 0.0
2018-Jul-15 15:58N 38°42' W 009°25'0 0.9
2018-Jul-15 15:28N 38°42' W 009°25'0 1.0
2018-Jul-15 15:00N 38°42' W 009°25'0 0.0
2018-Jul-15 14:24N 38°42' W 009°25'0 0.0
2018-Jul-15 12:42N 38°42' W 009°25'0 0.0
2018-Jul-15 12:30N 38°42' W 009°25'0 0.0
2018-Jul-15 11:54N 38°42' W 009°25'0 0.0
2018-Jul-15 11:06N 38°42' W 009°25'0 0.0
2018-Jul-15 10:54N 38°42' W 009°25'0 0.0
2018-Jul-15 10:30N 38°42' W 009°25'0 0.0
2018-Jul-15 09:18N 38°42' W 009°25'0 0.0
2018-Jul-15 08:06N 38°42' W 009°25'0 0.0
2018-Jul-15 07:12N 38°42' W 009°25'0 0.0
2018-Jul-15 07:00N 38°42' W 009°25'0 0.0
2018-Jul-15 06:24N 38°42' W 009°25'0 0.0
2018-Jul-15 05:48N 38°42' W 009°25'0 0.0
2018-Jul-15 05:30N 38°42' W 009°25'0 0.0
2018-Jul-15 04:48N 38°42' W 009°25'0 0.0
2018-Jul-15 04:30N 38°42' W 009°25'0 0.0
2018-Jul-15 04:00N 38°42' W 009°25'0 0.0
2018-Jul-15 03:24N 38°42' W 009°25'0 0.0
2018-Jul-15 02:48N 38°42' W 009°25'0 0.0
2018-Jul-15 02:30N 38°42' W 009°25'0 0.0
2018-Jul-15 01:54N 38°42' W 009°25'0 0.0
2018-Jul-14 23:51N 38°42' W 009°25'0 0.0
2018-Jul-14 23:06N 38°42' W 009°25'0 0.1
2018-Jul-14 23:00N 38°42' W 009°25'0 0.0
2018-Jul-14 21:54N 38°42' W 009°25'0 0.0
2018-Jul-14 21:24N 38°42' W 009°25'0 0.0
2018-Jul-14 20:54N 38°42' W 009°25'0 0.0
2018-Jul-14 20:24N 38°42' W 009°25'0 0.0
2018-Jul-14 20:00N 38°42' W 009°25'0 0.0
2018-Jul-14 19:30N 38°42' W 009°25'0 0.0
2018-Jul-14 19:00N 38°42' W 009°25'0 0.0
2018-Jul-14 18:30N 38°42' W 009°25'0 0.0
2018-Jul-14 17:54N 38°42' W 009°25'0 0.0
2018-Jul-14 17:18N 38°42' W 009°25'0 0.0
2018-Jul-14 17:00N 38°42' W 009°25'0 0.2
2018-Jul-14 16:28N 38°42' W 009°25'0 0.1
2018-Jul-14 15:58N 38°42' W 009°25'2 3.6
2018-Jul-14 15:19N 38°41' W 009°28'2 6.9
2018-Jul-14 14:58N 38°42' W 009°31'4 7.8
2018-Jul-14 14:30N 38°43' W 009°35'  
Track history (hours):
 
Tides and Currents Weather Stations Pressure Air Temp Water Temp Dewpoint Dewpoint Depression Visibility Wind Speed Wind Dir Waves Ship Positions

Portlish

Last reported at 2018-Jul-22 22:00 UTC. Time now 2018-Jul-22 22:06 UTC.
Position N 37°57' W 008°52'.

Length 14 m.

Type: Sailing vessel. MMSI: 263945980.

Date/timePositionNaut miles runAvg speedWind from/ knotsBaromVisibWave heightAir tempDewpointWater temp
2018-Jul-22 22:00N 37°57' W 008°52'0 0.0
2018-Jul-22 21:30N 37°57' W 008°52'0 0.0
2018-Jul-22 21:00N 37°57' W 008°52'0 0.0
2018-Jul-22 20:30N 37°57' W 008°52'0 0.0
2018-Jul-22 20:00N 37°57' W 008°52'0 0.0
2018-Jul-22 19:30N 37°57' W 008°52'0 0.0
2018-Jul-22 19:00N 37°57' W 008°52'0 0.0
2018-Jul-22 18:30N 37°57' W 008°52'0 0.0
2018-Jul-22 18:00N 37°57' W 008°52'0 0.0
2018-Jul-22 17:29N 37°57' W 008°52'0 0.0
2018-Jul-22 16:59N 37°57' W 008°52'0 0.0
2018-Jul-22 16:29N 37°57' W 008°52'0 0.0
2018-Jul-22 15:59N 37°57' W 008°52'3 3.3
2018-Jul-22 15:00N 37°58' W 008°56'4 8.1
2018-Jul-22 14:30N 38°02' W 008°58'4 8.2
2018-Jul-22 14:00N 38°06' W 009°01'4 8.1
2018-Jul-22 13:30N 38°09' W 009°03'3 6.9
2018-Jul-22 13:00N 38°12' W 009°05'4 8.5
2018-Jul-22 12:31N 38°16' W 009°08'9 8.6
2018-Jul-22 11:26N 38°24' W 009°13'4 8.3
2018-Jul-22 10:58N 38°27' W 009°15'4 8.3
2018-Jul-22 10:30N 38°31' W 009°18'4 8.1
2018-Jul-22 10:00N 38°34' W 009°20'4 7.9
2018-Jul-22 09:29N 38°38' W 009°23'4 7.9
2018-Jul-22 09:00N 38°42' W 009°24'0 0.9
2018-Jul-22 08:30N 38°42' W 009°25'0 0.0
2018-Jul-22 08:00N 38°42' W 009°25'0 0.0
2018-Jul-22 07:30N 38°42' W 009°25'0 0.0
2018-Jul-22 06:54N 38°42' W 009°25'0 0.0
2018-Jul-22 06:30N 38°42' W 009°25'0 0.0
2018-Jul-22 05:54N 38°42' W 009°25'0 0.0
2018-Jul-22 05:24N 38°42' W 009°25'0 0.0
2018-Jul-22 04:06N 38°42' W 009°25'0 0.0
2018-Jul-22 04:00N 38°42' W 009°25'0 0.0
2018-Jul-22 03:24N 38°42' W 009°25'0 0.0
2018-Jul-22 03:00N 38°42' W 009°25'0 0.0
2018-Jul-22 01:21N 38°42' W 009°25'0 0.0
2018-Jul-22 01:00N 38°42' W 009°25'0 0.0
2018-Jul-22 00:27N 38°42' W 009°25'0 0.0
2018-Jul-21 23:51N 38°42' W 009°25'0 0.0
2018-Jul-21 22:42N 38°42' W 009°25'0 0.0
2018-Jul-21 22:30N 38°42' W 009°25'0 0.0
2018-Jul-21 21:24N 38°42' W 009°25'0 0.0
2018-Jul-21 20:48N 38°42' W 009°25'0 0.0
2018-Jul-21 20:24N 38°42' W 009°25'0 0.0
2018-Jul-21 20:00N 38°42' W 009°25'0 0.0
2018-Jul-21 19:30N 38°42' W 009°25'0 0.0
2018-Jul-21 18:54N 38°42' W 009°25'0 0.0
2018-Jul-21 17:12N 38°42' W 009°25'0 0.0
2018-Jul-21 17:00N 38°42' W 009°25'0 0.0
2018-Jul-21 16:30N 38°42' W 009°25'0 0.0
2018-Jul-21 15:42N 38°42' W 009°25'0 0.0
2018-Jul-21 15:30N 38°42' W 009°25'0 0.0
2018-Jul-21 15:00N 38°42' W 009°25'0 0.0
2018-Jul-21 14:30N 38°42' W 009°25'0 0.0
2018-Jul-21 13:30N 38°42' W 009°25'0 0.0
2018-Jul-21 12:48N 38°42' W 009°25'0 0.0
2018-Jul-21 11:18N 38°42' W 009°25'0 0.0
2018-Jul-21 10:54N 38°42' W 009°25'0 0.0
2018-Jul-21 09:57N 38°42' W 009°25'0 0.0
2018-Jul-21 09:18N 38°42' W 009°25'0 0.0
2018-Jul-21 09:00N 38°42' W 009°25'0 0.0
2018-Jul-21 08:30N 38°42' W 009°25'0 0.0
2018-Jul-21 07:18N 38°42' W 009°25'0 0.0
2018-Jul-21 06:54N 38°42' W 009°25'0 0.0
2018-Jul-21 06:12N 38°42' W 009°25'0 0.0
2018-Jul-21 05:54N 38°42' W 009°25'0 0.0
2018-Jul-21 05:30N 38°42' W 009°25'0 0.0
2018-Jul-21 05:00N 38°42' W 009°25'0 0.0
2018-Jul-21 04:30N 38°42' W 009°25'0 0.0
2018-Jul-21 02:48N 38°42' W 009°25'0 0.0
2018-Jul-21 02:24N 38°42' W 009°25'0 0.0
2018-Jul-21 01:54N 38°42' W 009°25'0 0.0
2018-Jul-21 01:30N 38°42' W 009°25'0 0.0
2018-Jul-21 00:51N 38°42' W 009°25'0 0.0
2018-Jul-21 00:30N 38°42' W 009°25'0 0.0
2018-Jul-20 23:48N 38°42' W 009°25'0 0.0
2018-Jul-20 23:24N 38°42' W 009°25'0 0.0
2018-Jul-20 22:48N 38°42' W 009°25'0 0.0
2018-Jul-20 21:06N 38°42' W 009°25'0 0.0
2018-Jul-20 20:36N 38°42' W 009°25'0 0.0
2018-Jul-20 20:24N 38°42' W 009°25'0 0.0
2018-Jul-20 19:54N 38°42' W 009°25'0 0.0
2018-Jul-20 19:06N 38°42' W 009°25'0 0.0
2018-Jul-20 19:00N 38°42' W 009°25'0 0.0
2018-Jul-20 18:18N 38°42' W 009°25'0 0.0
2018-Jul-20 16:06N 38°42' W 009°25'0 0.0
2018-Jul-20 15:36N 38°42' W 009°25'0 0.0
2018-Jul-20 15:30N 38°42' W 009°25'0 0.0
2018-Jul-20 14:54N 38°42' W 009°25'0 0.0
2018-Jul-20 13:12N 38°42' W 009°25'0 0.0
2018-Jul-20 10:48N 38°42' W 009°25'0 0.0
2018-Jul-20 10:12N 38°42' W 009°25'0 0.0
2018-Jul-20 10:00N 38°42' W 009°25'0 0.0
2018-Jul-20 09:12N 38°42' W 009°25'0 0.0
2018-Jul-20 08:48N 38°42' W 009°25'0 0.0
2018-Jul-20 08:24N 38°42' W 009°25'0 0.0
2018-Jul-20 08:00N 38°42' W 009°25'0 0.0
2018-Jul-20 07:30N 38°42' W 009°25'0 0.0
2018-Jul-20 07:00N 38°42' W 009°25'0 0.0
2018-Jul-20 06:30N 38°42' W 009°25'0 0.0
2018-Jul-20 06:00N 38°42' W 009°25'0 0.0
2018-Jul-20 05:27N 38°42' W 009°25'0 0.0
2018-Jul-20 04:12N 38°42' W 009°25'0 0.0
2018-Jul-20 03:30N 38°42' W 009°25'0 0.0
2018-Jul-20 03:00N 38°42' W 009°25'0 0.0
2018-Jul-20 01:39N 38°42' W 009°25'0 0.0
2018-Jul-20 01:30N 38°42' W 009°25'0 0.0
2018-Jul-20 01:00N 38°42' W 009°25'0 0.0
2018-Jul-20 00:18N 38°42' W 009°25'0 0.0
2018-Jul-20 00:00N 38°42' W 009°25'0 0.0
2018-Jul-19 23:30N 38°42' W 009°25'0 0.0
2018-Jul-19 23:00N 38°42' W 009°25'0 0.0
2018-Jul-19 22:18N 38°42' W 009°25'0 0.0
2018-Jul-19 21:54N 38°42' W 009°25'0 0.0
2018-Jul-19 18:48N 38°42' W 009°25'0 0.0
2018-Jul-19 18:24N 38°42' W 009°25'0 0.0
2018-Jul-19 18:00N 38°42' W 009°25'0 0.0
2018-Jul-19 16:54N 38°42' W 009°25'0 0.0
2018-Jul-19 16:24N 38°42' W 009°25'0 0.0
2018-Jul-19 16:00N 38°42' W 009°25'0 0.0
2018-Jul-19 15:24N 38°42' W 009°25'0 0.0
2018-Jul-19 15:00N 38°42' W 009°25'0 0.0
2018-Jul-19 14:30N 38°42' W 009°25'0 0.0
2018-Jul-19 13:30N 38°42' W 009°25'0 0.0
2018-Jul-19 12:54N 38°42' W 009°25'0 0.0
2018-Jul-19 12:30N 38°42' W 009°25'0 0.0
2018-Jul-19 11:36N 38°42' W 009°25'0 0.0
2018-Jul-19 11:12N 38°42' W 009°25'0 0.0
2018-Jul-19 11:00N 38°42' W 009°25'0 0.0
2018-Jul-19 10:24N 38°42' W 009°25'0 0.0
2018-Jul-19 09:18N 38°42' W 009°25'0 0.0
2018-Jul-19 08:48N 38°42' W 009°25'0 0.0
2018-Jul-19 07:57N 38°42' W 009°25'0 0.0
2018-Jul-19 07:30N 38°42' W 009°25'0 0.0
2018-Jul-19 06:48N 38°42' W 009°25'0 0.0
2018-Jul-19 06:24N 38°42' W 009°25'0 0.0
2018-Jul-19 05:42N 38°42' W 009°25'0 0.0
2018-Jul-19 05:24N 38°42' W 009°25'0 0.0
2018-Jul-19 05:00N 38°42' W 009°25'0 0.0
2018-Jul-19 04:24N 38°42' W 009°25'0 0.0
2018-Jul-19 03:27N 38°42' W 009°25'0 0.0
2018-Jul-19 03:00N 38°42' W 009°25'0 0.0
2018-Jul-19 02:12N 38°42' W 009°25'0 0.0
2018-Jul-19 01:54N 38°42' W 009°25'0 0.0
2018-Jul-19 01:22N 38°42' W 009°25'0 0.0
2018-Jul-19 00:53N 38°42' W 009°25'0 0.0
2018-Jul-18 23:59N 38°42' W 009°25'0 0.0
2018-Jul-18 23:23N 38°42' W 009°25'0 0.0
2018-Jul-18 22:59N 38°42' W 009°25'0 0.0
2018-Jul-18 21:44N 38°42' W 009°25'0 0.0
2018-Jul-18 21:23N 38°42' W 009°25'0 0.0
2018-Jul-18 20:47N 38°42' W 009°25'0 0.0
2018-Jul-18 20:17N 38°42' W 009°25'0 0.0
2018-Jul-18 19:59N 38°42' W 009°25'0 0.0
2018-Jul-18 19:23N 38°42' W 009°25'0 0.0
2018-Jul-18 18:53N 38°42' W 009°25'0 0.0
2018-Jul-18 18:23N 38°42' W 009°25'0 0.0
2018-Jul-18 17:35N 38°42' W 009°25'0 0.0
2018-Jul-18 17:11N 38°42' W 009°25'0 0.0
2018-Jul-18 16:47N 38°42' W 009°25'0 0.0
2018-Jul-18 16:11N 38°42' W 009°25'0 0.0
2018-Jul-18 15:05N 38°42' W 009°25'0 0.0
2018-Jul-18 14:59N 38°42' W 009°25'0 0.0
2018-Jul-18 14:17N 38°42' W 009°25'0 0.0
2018-Jul-18 11:29N 38°42' W 009°25'0 0.0
2018-Jul-18 10:17N 38°42' W 009°25'0 0.0
2018-Jul-18 09:47N 38°42' W 009°25'0 0.0
2018-Jul-18 08:05N 38°42' W 009°25'0 0.0
2018-Jul-18 07:38N 38°42' W 009°25'0 0.0
2018-Jul-18 07:17N 38°42' W 009°25'0 0.0
2018-Jul-18 06:38N 38°42' W 009°25'0 0.0
2018-Jul-18 06:29N 38°42' W 009°25'0 0.0
2018-Jul-18 05:53N 38°42' W 009°25'0 0.0
2018-Jul-18 05:26N 38°42' W 009°25'0 0.0
2018-Jul-18 04:56N 38°42' W 009°25'0 0.0
2018-Jul-18 04:23N 38°42' W 009°25'0 0.0
2018-Jul-18 03:53N 38°42' W 009°25'0 0.0
2018-Jul-18 03:29N 38°42' W 009°25'0 0.0
2018-Jul-18 02:59N 38°42' W 009°25'0 0.0
2018-Jul-18 01:35N 38°42' W 009°25'0 0.0
2018-Jul-18 01:22N 38°42' W 009°25'0 0.0
2018-Jul-17 23:13N 38°42' W 009°25'0 0.0
2018-Jul-17 22:49N 38°42' W 009°25'0 0.0
2018-Jul-17 22:07N 38°42' W 009°25'0 0.0
2018-Jul-17 21:37N 38°42' W 009°25'0 0.0
2018-Jul-17 21:25N 38°42' W 009°25'0 0.0
2018-Jul-17 20:55N 38°42' W 009°25'0 0.0
2018-Jul-17 20:07N 38°42' W 009°25'0 0.0
2018-Jul-17 19:37N 38°42' W 009°25'0 0.0
2018-Jul-17 19:07N 38°42' W 009°25'0 0.0
2018-Jul-17 18:55N 38°42' W 009°25'0 0.0
2018-Jul-17 17:55N 38°42' W 009°25'0 0.0
2018-Jul-17 17:07N 38°42' W 009°25'0 0.0
2018-Jul-17 16:55N 38°42' W 009°25'0 0.0
2018-Jul-17 16:25N 38°42' W 009°25'0 0.0
2018-Jul-17 15:37N 38°42' W 009°25'0 0.0
2018-Jul-17 15:19N 38°42' W 009°25'0 0.0
2018-Jul-17 14:58N 38°42' W 009°25'0 0.0
2018-Jul-17 14:19N 38°42' W 009°25'0 0.0
2018-Jul-17 13:49N 38°42' W 009°25'0 0.0
2018-Jul-17 13:01N 38°42' W 009°25'0 0.0
2018-Jul-17 12:55N 38°42' W 009°25'0 0.0
2018-Jul-17 12:07N 38°42' W 009°25'0 0.0
2018-Jul-17 11:55N 38°42' W 009°25'0 0.0
2018-Jul-17 11:25N 38°42' W 009°25'0 0.0
2018-Jul-17 10:55N 38°42' W 009°25'0 0.0
2018-Jul-17 09:37N 38°42' W 009°25'0 0.0
2018-Jul-17 09:19N 38°42' W 009°25'0 0.0
2018-Jul-17 08:46N 38°42' W 009°25'0 0.0
2018-Jul-17 08:19N 38°42' W 009°25'0 0.0
2018-Jul-17 07:55N 38°42' W 009°25'0 0.0
2018-Jul-17 07:19N 38°42' W 009°25'0 0.0
2018-Jul-17 06:43N 38°42' W 009°25'0 0.0
2018-Jul-17 05:37N 38°42' W 009°25'0 0.0
2018-Jul-17 05:13N 38°42' W 009°25'0 0.0
2018-Jul-17 04:49N 38°42' W 009°25'0 0.0
2018-Jul-17 04:25N 38°42' W 009°25'0 0.0
2018-Jul-17 03:52N 38°42' W 009°25'0 0.0
2018-Jul-17 03:25N 38°42' W 009°25'0 0.0
2018-Jul-17 01:07N 38°42' W 009°25'0 0.0
2018-Jul-17 00:58N 38°42' W 009°25'0 0.0
2018-Jul-17 00:24N 38°42' W 009°25'0 0.0
2018-Jul-16 23:30N 38°42' W 009°25'0 0.0
2018-Jul-16 22:48N 38°42' W 009°25'0 0.0
2018-Jul-16 22:24N 38°42' W 009°25'0 0.0
2018-Jul-16 21:54N 38°42' W 009°25'0 0.0
2018-Jul-16 21:27N 38°42' W 009°25'0 0.0
2018-Jul-16 20:54N 38°42' W 009°25'0 0.0
2018-Jul-16 19:54N 38°42' W 009°25'0 0.0
2018-Jul-16 18:54N 38°42' W 009°25'0 0.0
2018-Jul-16 18:12N 38°42' W 009°25'0 0.0
2018-Jul-16 17:48N 38°42' W 009°25'0 0.0
2018-Jul-16 17:30N 38°42' W 009°25'0 0.0
2018-Jul-16 17:00N 38°42' W 009°25'0 0.0
2018-Jul-16 16:24N 38°42' W 009°25'0 0.0
2018-Jul-16 16:00N 38°42' W 009°25'0 0.0
2018-Jul-16 15:30N 38°42' W 009°25'0 0.0
2018-Jul-16 15:00N 38°42' W 009°25'0 0.0
2018-Jul-16 14:30N 38°42' W 009°25'0 0.0
2018-Jul-16 13:30N 38°42' W 009°25'0 0.0
2018-Jul-16 13:00N 38°42' W 009°25'0 0.0
2018-Jul-16 12:18N 38°42' W 009°25'0 0.0
2018-Jul-16 11:54N 38°42' W 009°25'0 0.0
2018-Jul-16 11:18N 38°42' W 009°25'0 0.0
2018-Jul-16 10:54N 38°42' W 009°25'0 0.0
2018-Jul-16 10:12N 38°42' W 009°25'0 0.0
2018-Jul-16 09:48N 38°42' W 009°25'0 0.0
2018-Jul-16 09:30N 38°42' W 009°25'0 0.0
2018-Jul-16 08:54N 38°42' W 009°25'0 0.0
2018-Jul-16 08:24N 38°42' W 009°25'0 0.0
2018-Jul-16 07:30N 38°42' W 009°25'0 0.0
2018-Jul-16 07:00N 38°42' W 009°25'0 0.0
2018-Jul-16 06:30N 38°42' W 009°25'0 0.0
2018-Jul-16 05:48N 38°42' W 009°25'0 0.0
2018-Jul-16 05:24N 38°42' W 009°25'0 0.0
2018-Jul-16 04:59N 38°42' W 009°25'0 0.0
2018-Jul-16 04:16N 38°42' W 009°25'0 0.0
2018-Jul-16 03:22N 38°42' W 009°25'0 0.0
2018-Jul-16 02:52N 38°42' W 009°25'0 0.0
2018-Jul-16 02:22N 38°42' W 009°25'0 0.0
2018-Jul-16 01:55N 38°42' W 009°25'0 0.0
2018-Jul-16 00:46N 38°42' W 009°25'0 0.0
2018-Jul-15 23:58N 38°42' W 009°25'0 0.0
2018-Jul-15 23:28N 38°42' W 009°25'0 0.0
2018-Jul-15 22:16N 38°42' W 009°25'0 0.0
2018-Jul-15 21:55N 38°42' W 009°25'0 0.0
2018-Jul-15 21:28N 38°42' W 009°25'0 0.0
2018-Jul-15 20:39N 38°42' W 009°25'0 0.0
2018-Jul-15 20:21N 38°42' W 009°25'0 0.0
2018-Jul-15 19:57N 38°42' W 009°25'0 0.0
2018-Jul-15 19:27N 38°42' W 009°25'0 0.0
2018-Jul-15 18:45N 38°42' W 009°25'0 0.0
2018-Jul-15 18:21N 38°42' W 009°25'0 0.0
2018-Jul-15 17:51N 38°42' W 009°25'0 0.0
2018-Jul-15 17:09N 38°42' W 009°25'0 2.1
2018-Jul-15 16:59N 38°42' W 009°25'0 0.4
2018-Jul-15 16:04N 38°42' W 009°25'0 0.0
2018-Jul-15 15:58N 38°42' W 009°25'0 0.9
2018-Jul-15 15:28N 38°42' W 009°25'0 1.0
2018-Jul-15 15:00N 38°42' W 009°25'0 0.0
2018-Jul-15 14:24N 38°42' W 009°25'0 0.0
2018-Jul-15 12:42N 38°42' W 009°25'0 0.0
2018-Jul-15 12:30N 38°42' W 009°25'0 0.0
2018-Jul-15 11:54N 38°42' W 009°25'0 0.0
2018-Jul-15 11:06N 38°42' W 009°25'0 0.0
2018-Jul-15 10:54N 38°42' W 009°25'0 0.0
2018-Jul-15 10:30N 38°42' W 009°25'0 0.0
2018-Jul-15 09:18N 38°42' W 009°25'0 0.0
2018-Jul-15 08:06N 38°42' W 009°25'0 0.0
2018-Jul-15 07:12N 38°42' W 009°25'0 0.0
2018-Jul-15 07:00N 38°42' W 009°25'0 0.0
2018-Jul-15 06:24N 38°42' W 009°25'0 0.0
2018-Jul-15 05:48N 38°42' W 009°25'0 0.0
2018-Jul-15 05:30N 38°42' W 009°25'0 0.0
2018-Jul-15 04:48N 38°42' W 009°25'0 0.0
2018-Jul-15 04:30N 38°42' W 009°25'0 0.0
2018-Jul-15 04:00N 38°42' W 009°25'0 0.0
2018-Jul-15 03:24N 38°42' W 009°25'0 0.0
2018-Jul-15 02:48N 38°42' W 009°25'0 0.0
2018-Jul-15 02:30N 38°42' W 009°25'0 0.0
2018-Jul-15 01:54N 38°42' W 009°25'0 0.0
2018-Jul-14 23:51N 38°42' W 009°25'0 0.0
2018-Jul-14 23:06N 38°42' W 009°25'0 0.1
2018-Jul-14 23:00N 38°42' W 009°25'0 0.0
2018-Jul-14 21:54N 38°42' W 009°25'0 0.0
2018-Jul-14 21:24N 38°42' W 009°25'0 0.0
2018-Jul-14 20:54N 38°42' W 009°25'0 0.0
2018-Jul-14 20:24N 38°42' W 009°25'0 0.0
2018-Jul-14 20:00N 38°42' W 009°25'0 0.0
2018-Jul-14 19:30N 38°42' W 009°25'0 0.0
2018-Jul-14 19:00N 38°42' W 009°25'0 0.0
2018-Jul-14 18:30N 38°42' W 009°25'0 0.0
2018-Jul-14 17:54N 38°42' W 009°25'0 0.0
2018-Jul-14 17:18N 38°42' W 009°25'0 0.0
2018-Jul-14 17:00N 38°42' W 009°25'0 0.2
2018-Jul-14 16:28N 38°42' W 009°25'0 0.1
2018-Jul-14 15:58N 38°42' W 009°25'2 3.6
2018-Jul-14 15:19N 38°41' W 009°28'2 6.9
2018-Jul-14 14:58N 38°42' W 009°31'4 7.8
2018-Jul-14 14:30N 38°43' W 009°35'  

Dump ship's entire track history